createdAt,value
2022-08-26T00:02:19.411Z,7.85
2022-08-26T00:04:49.854Z,7.35
2022-08-26T00:07:19.383Z,7.70
2022-08-26T00:09:47.593Z,7.05
2022-08-26T00:12:15.901Z,6.78
2022-08-26T00:14:44.618Z,7.45
2022-08-26T00:17:13.362Z,7.40
2022-08-26T00:19:42.800Z,7.05
2022-08-26T00:22:11.544Z,7.03
2022-08-26T00:24:39.690Z,7.38
2022-08-26T00:27:16.539Z,7.22
2022-08-26T00:29:45.891Z,6.53
2022-08-26T00:32:14.520Z,7.57
2022-08-26T00:34:44.022Z,7.82
2022-08-26T00:37:15.662Z,6.90
2022-08-26T00:39:44.783Z,7.75
2022-08-26T00:42:14.004Z,7.53
2022-08-26T00:44:42.254Z,7.68
2022-08-26T00:47:18.006Z,7.28
2022-08-26T00:49:50.233Z,7.68
2022-08-26T00:52:22.716Z,7.47
2022-08-26T00:54:59.209Z,7.63
2022-08-26T00:57:27.758Z,7.78
2022-08-26T01:00:01.560Z,7.95
2022-08-26T01:02:30.582Z,8.00
2022-08-26T01:05:03.451Z,7.95
2022-08-26T01:07:33.263Z,7.45
2022-08-26T01:10:06.432Z,7.82
2022-08-26T01:12:41.129Z,7.70
2022-08-26T01:15:11.399Z,8.10
2022-08-26T01:17:40.730Z,8.35
2022-08-26T01:20:20.475Z,7.50
2022-08-26T01:22:57.217Z,8.18
2022-08-26T01:25:28.189Z,7.70
2022-08-26T01:27:58.743Z,7.85
2022-08-26T01:30:28.671Z,7.93
2022-08-26T01:32:59.605Z,8.85
2022-08-26T01:35:29.452Z,7.50
2022-08-26T01:38:00.781Z,8.85
2022-08-26T01:40:34.918Z,8.27
2022-08-26T01:43:05.820Z,8.63
2022-08-26T01:46:33.904Z,8.57
2022-08-26T01:49:07.775Z,7.88
2022-08-26T01:51:37.952Z,8.55
2022-08-26T01:54:11.908Z,8.43
2022-08-26T01:56:41.038Z,8.20
2022-08-26T01:59:13.419Z,8.43
2022-08-26T02:01:41.907Z,8.38
2022-08-26T02:04:17.909Z,8.13
2022-08-26T02:06:47.318Z,8.15
2022-08-26T02:09:19.048Z,8.60
2022-08-26T02:11:49.134Z,7.95
2022-08-26T02:14:23.061Z,8.15
2022-08-26T02:16:56.134Z,8.13
2022-08-26T02:19:28.949Z,8.52
2022-08-26T02:22:00.275Z,8.20
2022-08-26T02:24:47.145Z,8.82
2022-08-26T02:27:16.886Z,8.52
2022-08-26T02:29:47.731Z,8.88
2022-08-26T02:32:18.863Z,8.75
2022-08-26T02:34:47.566Z,8.80
2022-08-26T02:37:15.718Z,9.05
2022-08-26T02:39:48.009Z,8.57
2022-08-26T02:42:16.728Z,8.40
2022-08-26T02:44:45.413Z,8.95
2022-08-26T02:47:15.453Z,8.95
2022-08-26T02:49:44.643Z,8.52
2022-08-26T02:52:16.396Z,8.80
2022-08-26T02:54:46.404Z,8.93
2022-08-26T02:57:17.705Z,9.07
2022-08-26T02:59:46.275Z,9.48
2022-08-26T03:02:14.865Z,8.80
2022-08-26T03:04:57.949Z,9.20
2022-08-26T03:07:30.718Z,9.05
2022-08-26T03:10:01.182Z,8.52
2022-08-26T03:12:37.102Z,9.23
2022-08-26T03:15:15.994Z,9.18
2022-08-26T03:17:47.006Z,8.85
2022-08-26T03:20:17.342Z,9.55
2022-08-26T03:22:46.174Z,8.32
2022-08-26T03:25:17.968Z,9.18
2022-08-26T03:27:46.753Z,8.68
2022-08-26T03:30:34.982Z,8.73
2022-08-26T03:33:04.076Z,8.75
2022-08-26T03:35:33.307Z,9.18
2022-08-26T03:38:01.974Z,8.75
2022-08-26T03:40:34.203Z,9.40
2022-08-26T03:43:02.509Z,8.60
2022-08-26T03:45:31.728Z,8.77
2022-08-26T03:48:00.977Z,8.77
2022-08-26T03:50:34.206Z,8.82
2022-08-26T03:53:07.448Z,9.18
2022-08-26T03:55:43.518Z,9.00
2022-08-26T03:58:12.021Z,8.80
2022-08-26T04:00:40.613Z,9.32
2022-08-26T04:03:10.039Z,9.65
2022-08-26T04:05:39.574Z,9.50
2022-08-26T04:08:08.804Z,9.68
2022-08-26T04:10:39.142Z,10.20
2022-08-26T04:13:09.285Z,9.20
2022-08-26T04:15:39.320Z,9.55
2022-08-26T04:18:07.882Z,9.60
2022-08-26T04:20:36.118Z,9.32
2022-08-26T04:23:05.266Z,9.65
2022-08-26T04:25:34.380Z,9.52
2022-08-26T04:28:04.285Z,10.57
2022-08-26T04:30:34.268Z,9.98
2022-08-26T04:33:04.604Z,9.57
2022-08-26T04:35:43.183Z,9.43
2022-08-26T04:38:12.428Z,11.05
2022-08-26T04:40:46.704Z,10.60
2022-08-26T04:43:16.195Z,9.68
2022-08-26T04:45:46.136Z,9.35
2022-08-26T04:48:16.756Z,9.55
2022-08-26T04:50:49.481Z,9.23
2022-08-26T04:53:17.886Z,10.00
2022-08-26T04:55:46.456Z,8.43
2022-08-26T04:58:18.146Z,9.60
2022-08-26T05:00:48.583Z,8.63
2022-08-26T05:03:18.042Z,8.73
2022-08-26T05:05:48.171Z,9.32
2022-08-26T05:08:18.117Z,8.38
2022-08-26T05:10:49.216Z,9.20
2022-08-26T05:13:20.694Z,8.73
2022-08-26T05:15:50.454Z,9.77
2022-08-26T05:18:21.298Z,9.05
2022-08-26T05:20:53.885Z,9.38
2022-08-26T05:23:24.114Z,9.07
2022-08-26T05:25:58.979Z,8.65
2022-08-26T05:28:30.405Z,8.63
2022-08-26T05:31:00.365Z,9.55
2022-08-26T05:33:29.399Z,9.40
2022-08-26T05:35:57.531Z,9.40
2022-08-26T05:38:30.265Z,9.48
2022-08-26T05:40:58.693Z,9.63
2022-08-26T05:43:28.120Z,9.40
2022-08-26T05:45:57.395Z,9.27
2022-08-26T05:48:40.261Z,10.05
2022-08-26T05:51:13.430Z,10.07
2022-08-26T05:53:54.786Z,10.35
2022-08-26T05:56:24.990Z,10.18
2022-08-26T05:58:53.560Z,10.98
2022-08-26T06:01:24.154Z,10.60
2022-08-26T06:03:56.347Z,11.07
2022-08-26T06:06:27.439Z,10.65
2022-08-26T06:08:57.540Z,11.30
2022-08-26T06:11:27.760Z,10.80
2022-08-26T06:14:03.046Z,12.00
2022-08-26T06:16:34.765Z,11.82
2022-08-26T06:19:10.547Z,11.93
2022-08-26T06:21:41.244Z,11.27
2022-08-26T06:24:29.818Z,11.57
2022-08-26T06:27:01.884Z,11.90
2022-08-26T06:29:33.123Z,11.57
2022-08-26T06:32:02.397Z,12.40
2022-08-26T06:34:32.727Z,12.48
2022-08-26T06:37:03.504Z,12.52
2022-08-26T06:39:32.943Z,11.15
2022-08-26T06:42:02.702Z,12.95
2022-08-26T06:44:32.476Z,11.63
2022-08-26T06:47:00.627Z,12.05
2022-08-26T06:49:29.192Z,12.27
2022-08-26T06:51:59.171Z,12.45
2022-08-26T06:54:28.387Z,12.57
2022-08-26T06:56:57.934Z,11.00
2022-08-26T06:59:26.962Z,10.95
2022-08-26T07:01:55.583Z,10.23
2022-08-26T07:04:27.889Z,11.27
2022-08-26T07:06:58.406Z,11.02
2022-08-26T07:09:29.299Z,10.13
2022-08-26T07:11:58.787Z,9.88
2022-08-26T07:14:27.529Z,10.95
2022-08-26T07:16:56.130Z,9.75
2022-08-26T07:19:30.253Z,10.35
2022-08-26T07:22:02.432Z,9.93
2022-08-26T07:24:32.492Z,9.93
2022-08-26T07:27:02.709Z,9.52
2022-08-26T07:29:31.455Z,9.98
2022-08-26T07:32:00.575Z,9.05
2022-08-26T07:34:29.269Z,9.63
2022-08-26T07:36:58.730Z,8.52
2022-08-26T07:39:31.430Z,8.68
2022-08-26T07:42:00.279Z,8.77
2022-08-26T07:44:30.059Z,8.60
2022-08-26T07:46:58.811Z,7.97
2022-08-26T07:49:28.194Z,8.27
2022-08-26T07:51:57.192Z,9.55
2022-08-26T07:54:27.319Z,8.45
2022-08-26T07:56:57.102Z,8.10
2022-08-26T07:59:26.931Z,7.38
2022-08-26T08:01:57.603Z,7.25
2022-08-26T08:04:26.773Z,7.38
2022-08-26T08:06:56.022Z,6.95
2022-08-26T08:09:25.550Z,6.85
2022-08-26T08:11:53.968Z,6.43
2022-08-26T08:14:23.480Z,6.90
2022-08-26T08:16:54.988Z,6.72
2022-08-26T08:19:29.851Z,7.03
2022-08-26T08:22:05.312Z,6.72
2022-08-26T08:24:46.377Z,6.50
2022-08-26T08:27:23.273Z,7.00
2022-08-26T08:29:55.575Z,6.57
2022-08-26T08:32:24.832Z,6.90
2022-08-26T08:34:54.185Z,6.63
2022-08-26T08:37:22.708Z,6.38
2022-08-26T08:39:51.677Z,6.95
2022-08-26T08:42:44.400Z,6.88
2022-08-26T08:45:16.891Z,7.80
2022-08-26T08:47:51.490Z,6.97
2022-08-26T08:50:27.097Z,6.72
2022-08-26T08:53:08.819Z,6.40
2022-08-26T08:55:46.194Z,6.50
2022-08-26T08:58:19.187Z,7.45
2022-08-26T09:00:55.608Z,6.82
2022-08-26T09:03:36.591Z,6.88
2022-08-26T09:06:17.498Z,7.00
2022-08-26T09:08:50.085Z,6.13
2022-08-26T09:11:21.590Z,6.78
2022-08-26T09:13:53.176Z,6.60
2022-08-26T09:16:28.399Z,5.70
2022-08-26T09:19:19.221Z,6.32
2022-08-26T09:21:56.855Z,6.40
2022-08-26T09:24:28.309Z,6.00
2022-08-26T09:26:59.496Z,6.28
2022-08-26T09:29:30.244Z,5.45
2022-08-26T09:32:19.429Z,5.53
2022-08-26T09:34:57.795Z,5.43
2022-08-26T09:37:42.295Z,5.00
2022-08-26T09:40:34.824Z,5.90
2022-08-26T09:43:13.939Z,5.65
2022-08-26T09:45:50.241Z,5.68
2022-08-26T09:48:36.368Z,5.78
2022-08-26T09:51:07.219Z,6.05
2022-08-26T09:53:50.535Z,6.20
2022-08-26T09:56:27.527Z,6.22
2022-08-26T09:58:57.149Z,5.97
2022-08-26T10:01:33.143Z,5.70
2022-08-26T10:04:12.786Z,6.45
2022-08-26T10:06:44.020Z,5.65
2022-08-26T10:09:14.871Z,5.43
2022-08-26T10:11:47.752Z,6.35
2022-08-26T10:14:20.654Z,6.03
2022-08-26T10:16:54.893Z,5.30
2022-08-26T10:19:41.585Z,5.75
2022-08-26T10:22:24.418Z,5.25
2022-08-26T10:24:59.008Z,6.32
2022-08-26T10:27:35.595Z,5.28
2022-08-26T10:30:09.971Z,5.32
2022-08-26T10:32:41.559Z,5.75
2022-08-26T10:35:14.502Z,5.63
2022-08-26T10:37:47.908Z,6.47
2022-08-26T10:40:23.919Z,4.93
2022-08-26T10:42:58.042Z,5.43
2022-08-26T10:45:30.351Z,5.20
2022-08-26T10:48:06.649Z,6.10
2022-08-26T10:50:39.496Z,5.57
2022-08-26T10:53:14.990Z,5.47
2022-08-26T10:55:51.576Z,5.63
2022-08-26T10:58:38.108Z,5.38
2022-08-26T11:01:31.129Z,5.78
2022-08-26T11:04:09.185Z,5.32
2022-08-26T11:06:39.316Z,5.78
2022-08-26T11:09:11.192Z,5.15
2022-08-26T11:11:47.624Z,5.88
2022-08-26T11:14:53.961Z,5.00
2022-08-26T11:17:56.096Z,4.97
2022-08-26T11:20:34.915Z,4.88
2022-08-26T11:23:36.749Z,5.85
2022-08-26T11:26:37.882Z,5.07
2022-08-26T11:29:12.196Z,5.38
2022-08-26T11:31:56.801Z,5.03
2022-08-26T11:34:54.551Z,5.45
2022-08-26T11:37:25.963Z,4.72
2022-08-26T11:39:57.640Z,4.75
2022-08-26T11:42:35.938Z,4.68
2022-08-26T11:45:20.398Z,4.68
2022-08-26T11:47:49.613Z,4.70
2022-08-26T11:50:23.333Z,5.35
2022-08-26T11:52:56.758Z,4.38
2022-08-26T11:55:25.495Z,5.38
2022-08-26T11:57:58.220Z,5.38
2022-08-26T12:00:33.286Z,4.43
2022-08-26T12:03:03.466Z,5.38
2022-08-26T12:05:36.207Z,4.40
2022-08-26T12:08:09.954Z,4.22
2022-08-26T12:10:39.071Z,4.60
2022-08-26T12:13:10.364Z,4.50
2022-08-26T12:15:38.593Z,4.57
2022-08-26T12:18:28.690Z,4.30
2022-08-26T12:21:01.738Z,4.72
2022-08-26T12:23:41.297Z,4.40
2022-08-26T12:26:13.438Z,4.70
2022-08-26T12:28:48.508Z,4.57
2022-08-26T12:31:23.946Z,4.70
2022-08-26T12:33:53.213Z,4.80
2022-08-26T12:36:26.261Z,3.92
2022-08-26T12:38:58.282Z,5.20
2022-08-26T12:41:42.048Z,4.13
2022-08-26T12:44:54.302Z,4.55
2022-08-26T12:47:39.025Z,4.53
2022-08-26T12:50:20.455Z,4.90
2022-08-26T12:53:00.417Z,4.78
2022-08-26T12:55:39.730Z,4.75
2022-08-26T12:58:27.422Z,4.25
2022-08-26T13:00:59.337Z,4.72
2022-08-26T13:03:45.802Z,5.28
2022-08-26T13:06:26.773Z,5.30
2022-08-26T13:08:56.485Z,4.88
2022-08-26T13:11:27.624Z,5.32
2022-08-26T13:13:58.483Z,5.28
2022-08-26T13:16:29.494Z,5.47
2022-08-26T13:19:00.461Z,4.47
2022-08-26T13:21:35.501Z,4.70
2022-08-26T13:24:09.784Z,4.80
2022-08-26T13:26:37.887Z,5.22
2022-08-26T13:29:10.205Z,4.95
2022-08-26T13:31:42.364Z,4.75
2022-08-26T13:34:13.376Z,4.80
2022-08-26T13:36:42.237Z,4.88
2022-08-26T13:39:10.345Z,4.38
2022-08-26T13:41:39.115Z,5.18
2022-08-26T13:44:07.829Z,4.38
2022-08-26T13:46:36.694Z,4.72
2022-08-26T13:49:06.830Z,4.95
2022-08-26T13:51:35.907Z,4.50
2022-08-26T13:54:05.556Z,3.58
2022-08-26T13:56:34.558Z,3.40
2022-08-26T13:59:03.615Z,3.42
2022-08-26T14:01:33.923Z,3.88
2022-08-26T14:04:03.222Z,4.10
2022-08-26T14:06:33.880Z,4.25
2022-08-26T14:09:02.041Z,4.30
2022-08-26T14:11:37.026Z,3.70
2022-08-26T14:14:19.302Z,3.30
2022-08-26T14:16:59.108Z,3.47
2022-08-26T14:19:29.683Z,3.33
2022-08-26T14:22:01.245Z,3.85
2022-08-26T14:24:29.987Z,3.40
2022-08-26T14:26:58.599Z,3.10
2022-08-26T14:29:27.298Z,3.13
2022-08-26T14:31:59.115Z,2.38
2022-08-26T14:34:27.285Z,2.45
2022-08-26T14:36:55.832Z,2.70
2022-08-26T14:39:25.753Z,2.75
2022-08-26T14:41:57.231Z,3.25
2022-08-26T14:44:28.839Z,2.70
2022-08-26T14:46:58.050Z,3.33
2022-08-26T14:49:27.385Z,3.42
2022-08-26T14:51:56.883Z,2.97
2022-08-26T14:54:25.821Z,3.63
2022-08-26T14:56:56.590Z,3.60
2022-08-26T14:59:27.349Z,3.33
2022-08-26T15:01:56.656Z,4.05
2022-08-26T15:04:26.396Z,3.90
2022-08-26T15:06:56.944Z,4.32
2022-08-26T15:09:27.726Z,4.97
2022-08-26T15:11:56.014Z,4.80
2022-08-26T15:14:26.050Z,5.60
2022-08-26T15:16:58.424Z,4.95
2022-08-26T15:19:27.474Z,5.15
2022-08-26T15:21:55.892Z,4.90
2022-08-26T15:24:29.244Z,4.93
2022-08-26T15:26:57.935Z,4.80
2022-08-26T15:29:26.529Z,4.82
2022-08-26T15:31:57.233Z,4.43
2022-08-26T15:34:26.568Z,4.30
2022-08-26T15:36:55.617Z,3.95
2022-08-26T15:39:23.852Z,3.50
2022-08-26T15:41:53.823Z,2.25
2022-08-26T15:44:21.980Z,3.00
2022-08-26T15:46:55.343Z,3.20
2022-08-26T15:49:26.461Z,2.97
2022-08-26T15:51:55.047Z,2.75
2022-08-26T15:54:25.557Z,2.83
2022-08-26T15:56:55.072Z,3.03
2022-08-26T15:59:24.418Z,4.07
2022-08-26T16:01:53.175Z,3.78
2022-08-26T16:04:21.961Z,6.65
2022-08-26T16:06:52.526Z,2.83
2022-08-26T16:09:23.934Z,2.45
2022-08-26T16:11:54.908Z,2.63
2022-08-26T16:14:23.830Z,2.55
2022-08-26T16:16:52.697Z,5.13
2022-08-26T16:19:21.734Z,3.35
2022-08-26T16:21:51.860Z,3.65
2022-08-26T16:24:24.848Z,4.03
2022-08-26T16:26:56.453Z,4.40
2022-08-26T16:29:25.005Z,4.07
2022-08-26T16:31:55.143Z,4.03
2022-08-26T16:34:24.160Z,4.40
2022-08-26T16:36:52.443Z,4.65
2022-08-26T16:39:21.061Z,4.75
2022-08-26T16:41:49.260Z,4.35
2022-08-26T16:44:19.104Z,4.90
2022-08-26T16:46:47.277Z,4.88
2022-08-26T16:49:15.893Z,4.88
2022-08-26T16:51:44.469Z,4.38
2022-08-26T16:54:13.064Z,4.95
2022-08-26T16:56:41.618Z,5.38
2022-08-26T16:59:12.072Z,5.50
2022-08-26T17:01:41.625Z,5.75
2022-08-26T17:04:10.265Z,5.65
2022-08-26T17:06:38.477Z,6.00
2022-08-26T17:09:07.327Z,5.80
2022-08-26T17:11:35.757Z,6.03
2022-08-26T17:14:04.434Z,5.82
2022-08-26T17:16:33.339Z,6.13
2022-08-26T17:19:04.484Z,6.03
2022-08-26T17:21:34.516Z,6.47
2022-08-26T17:24:03.127Z,6.22
2022-08-26T17:26:31.744Z,6.13
2022-08-26T17:29:01.045Z,5.50
2022-08-26T17:31:29.188Z,6.53
2022-08-26T17:33:57.873Z,7.05
2022-08-26T17:36:28.482Z,6.60
2022-08-26T17:38:58.468Z,5.63
2022-08-26T17:41:27.900Z,6.15
2022-08-26T17:43:56.172Z,6.47
2022-08-26T17:46:25.243Z,6.35
2022-08-26T17:48:53.898Z,6.55
2022-08-26T17:51:23.931Z,6.35
2022-08-26T17:53:53.790Z,6.40
2022-08-26T17:56:25.685Z,6.30
2022-08-26T17:58:55.242Z,6.25
2022-08-26T18:01:27.893Z,6.53
2022-08-26T18:04:00.298Z,6.63
2022-08-26T18:06:30.840Z,6.22
2022-08-26T18:09:01.322Z,6.55
2022-08-26T18:11:32.583Z,6.43
2022-08-26T18:14:01.527Z,7.47
2022-08-26T18:16:34.534Z,6.65
2022-08-26T18:19:03.147Z,6.55
2022-08-26T18:21:31.411Z,6.20
2022-08-26T18:24:00.989Z,6.82
2022-08-26T18:26:31.622Z,6.32
2022-08-26T18:29:00.823Z,7.30
2022-08-26T18:31:30.193Z,6.68
2022-08-26T18:34:00.632Z,6.68
2022-08-26T18:36:31.429Z,6.72
2022-08-26T18:39:01.520Z,6.72
2022-08-26T18:41:32.300Z,6.78
2022-08-26T18:44:01.126Z,6.38
2022-08-26T18:46:30.154Z,6.53
2022-08-26T18:48:59.527Z,6.78
2022-08-26T18:51:31.128Z,6.80
2022-08-26T18:54:03.596Z,6.68
2022-08-26T18:56:32.213Z,7.20
2022-08-26T18:59:00.867Z,6.72
2022-08-26T19:01:31.063Z,7.68
2022-08-26T19:04:01.342Z,7.65
2022-08-26T19:06:32.052Z,8.00
2022-08-26T19:09:02.462Z,7.47
2022-08-26T19:11:37.389Z,7.85
2022-08-26T19:14:14.021Z,7.22
2022-08-26T19:16:42.967Z,7.40
2022-08-26T19:19:12.075Z,7.03
2022-08-26T19:21:40.838Z,8.45
2022-08-26T19:24:15.837Z,7.70
2022-08-26T19:26:45.196Z,8.73
2022-08-26T19:29:15.695Z,8.90
2022-08-26T19:31:44.625Z,9.13
2022-08-26T19:34:18.335Z,8.30
2022-08-26T19:36:49.472Z,9.32
2022-08-26T19:39:19.390Z,8.18
2022-08-26T19:41:47.966Z,9.02
2022-08-26T19:44:39.283Z,9.60
2022-08-26T19:47:10.701Z,10.07
2022-08-26T19:49:39.651Z,9.07
2022-08-26T19:52:07.998Z,8.40
2022-08-26T19:54:37.647Z,9.27
2022-08-26T19:57:06.543Z,9.20
2022-08-26T19:59:36.691Z,9.55
2022-08-26T20:02:10.923Z,8.65
2022-08-26T20:04:40.848Z,9.25
2022-08-26T20:07:12.025Z,8.95
2022-08-26T20:09:42.572Z,9.43
2022-08-26T20:12:11.362Z,8.77
2022-08-26T20:14:40.219Z,9.10
2022-08-26T20:17:08.378Z,9.52
2022-08-26T20:19:54.941Z,8.63
2022-08-26T20:22:23.397Z,8.50
2022-08-26T20:24:53.710Z,7.95
2022-08-26T20:27:37.702Z,8.23
2022-08-26T20:30:09.348Z,7.95
2022-08-26T20:32:38.903Z,7.60
2022-08-26T20:35:09.552Z,7.15
2022-08-26T20:37:38.819Z,7.32
2022-08-26T20:40:11.148Z,6.88
2022-08-26T20:42:39.429Z,6.70
2022-08-26T20:45:09.448Z,6.97
2022-08-26T20:47:37.724Z,6.93
2022-08-26T20:50:08.084Z,6.15
2022-08-26T20:52:36.381Z,6.28
2022-08-26T20:55:04.755Z,7.00
2022-08-26T20:57:34.659Z,6.38
2022-08-26T21:00:03.299Z,5.82
2022-08-26T21:02:31.445Z,4.65
2022-08-26T21:04:59.595Z,5.28
2022-08-26T21:07:27.775Z,4.20
2022-08-26T21:09:56.123Z,4.35
2022-08-26T21:12:24.236Z,4.65
2022-08-26T21:14:53.781Z,5.13
2022-08-26T21:17:21.896Z,5.10
2022-08-26T21:19:50.532Z,5.50
2022-08-26T21:22:18.639Z,5.57
2022-08-26T21:24:48.233Z,4.22
2022-08-26T21:27:21.297Z,3.72
2022-08-26T21:29:56.612Z,3.60
2022-08-26T21:32:25.229Z,3.70
2022-08-26T21:34:56.147Z,4.45
2022-08-26T21:37:25.014Z,3.97
2022-08-26T21:39:55.246Z,4.22
2022-08-26T21:42:24.656Z,3.88
2022-08-26T21:44:53.414Z,4.50
2022-08-26T21:47:23.669Z,4.00
2022-08-26T21:49:52.543Z,4.35
2022-08-26T21:52:21.871Z,4.45
2022-08-26T21:54:50.484Z,4.55
2022-08-26T21:57:19.566Z,4.25
2022-08-26T21:59:48.110Z,5.22
2022-08-26T22:02:16.255Z,5.00
2022-08-26T22:04:48.862Z,4.95
2022-08-26T22:07:19.550Z,5.00
2022-08-26T22:09:47.954Z,5.22
2022-08-26T22:12:18.673Z,4.65
2022-08-26T22:14:47.115Z,4.80
2022-08-26T22:17:15.972Z,5.38
2022-08-26T22:19:46.794Z,4.93
2022-08-26T22:22:15.835Z,4.93
2022-08-26T22:24:44.382Z,4.88
2022-08-26T22:27:14.061Z,5.05
2022-08-26T22:29:42.567Z,4.55
2022-08-26T22:32:11.628Z,5.03
2022-08-26T22:34:41.012Z,4.90
2022-08-26T22:37:10.909Z,4.47
2022-08-26T22:39:39.502Z,4.50
2022-08-26T22:42:07.810Z,5.18
2022-08-26T22:44:37.959Z,5.20
2022-08-26T22:47:06.347Z,5.50
2022-08-26T22:49:34.878Z,5.35
2022-08-26T22:52:03.196Z,5.22
2022-08-26T22:54:32.905Z,7.80
2022-08-26T22:57:01.065Z,5.75
2022-08-26T22:59:32.179Z,5.53
2022-08-26T23:02:00.696Z,5.45
2022-08-26T23:04:28.822Z,6.13
2022-08-26T23:06:56.935Z,5.38
2022-08-26T23:09:25.070Z,6.05
2022-08-26T23:11:55.954Z,5.55
2022-08-26T23:14:25.548Z,6.53
2022-08-26T23:16:53.836Z,6.35
2022-08-26T23:19:23.677Z,6.35
2022-08-26T23:21:52.026Z,6.80
2022-08-26T23:24:20.862Z,6.05
2022-08-26T23:26:49.230Z,6.03
2022-08-26T23:29:19.134Z,5.70
2022-08-26T23:31:47.305Z,5.22
2022-08-26T23:34:32.888Z,5.47
2022-08-26T23:37:02.004Z,5.40
2022-08-26T23:39:33.874Z,5.45
2022-08-26T23:42:03.454Z,5.97
2022-08-26T23:44:33.231Z,6.22
2022-08-26T23:47:02.150Z,6.07
2022-08-26T23:49:30.701Z,6.47
2022-08-26T23:52:17.257Z,5.97
2022-08-26T23:54:47.819Z,6.28
2022-08-26T23:57:16.994Z,6.95
2022-08-26T23:59:47.333Z,7.65
